Flight Track Log - Related Links

Times and Time Zones

All times are in EDT time to prevent confusion due to time zone crossing. See the AAY900 flight status page for this flight to view local times or setup timezone preferences in your user account.

Time Position Orientation Groundspeed Altitude Reporting Facility
EDT Latitude Longitude Course Direction KTS MPH feet Rate Location/Type
Sun 07:59:54 AM 26.0772 -80.1275 76° East 141 162 1,400  Level Miami Center
Sun 08:01:06 AM 26.0936 -80.0539 350° North 235 270 3,300 2,211 Climbing Miami Center
Sun 08:02:07 AM 26.1600 -80.0672 317° Northwest 278 320 6,300 2,586 Climbing Miami Center
Sun 08:03:02 AM 26.2131 -80.1219 327° Northwest 288 331 8,300 2,514 Climbing Miami Center
Sun 08:03:52 AM 26.2686 -80.1628 323° Northwest 302 348 10,700 1,909 Climbing Miami Center
Sun 08:04:52 AM 26.3425 -80.2253 339° North 311 358 11,800 1,400 Climbing Miami Center
Sun 08:05:52 AM 26.4436 -80.2697 342° North 364 419 13,500 2,150 Climbing Miami Center
Sun 08:06:52 AM 26.5514 -80.3100 341° North 397 457 16,100 2,400 Climbing Miami Center
Sun 08:07:52 AM 26.6589 -80.3503 343° North 408 470 18,300 2,050 Climbing Miami Center
Sun 08:08:52 AM 26.7708 -80.3886 340° North 415 478 20,200 1,650 Climbing Miami Center
Sun 08:09:52 AM 26.8844 -80.4339 342° North 421 484 21,600 1,750 Climbing Miami Center
Sun 08:10:52 AM 27.0006 -80.4772 343° North 428 493 23,700 2,000 Climbing Miami Center
Sun 08:11:52 AM 27.1164 -80.5181 341° North 428 493 25,600 1,750 Climbing Miami Center
Sun 08:12:52 AM 27.2300 -80.5614 341° North 428 493 27,200 1,700 Climbing Miami Center
Sun 08:13:52 AM 27.3417 -80.6047 343° North 428 493 29,000 1,650 Climbing Miami Center
Sun 08:14:52 AM 27.4533 -80.6433 341° North 417 480 30,500 1,400 Climbing Miami Center
Sun 08:15:52 AM 27.5631 -80.6869 342° North 417 480 31,800 1,150 Climbing Miami Center
Sun 08:16:52 AM 27.6683 -80.7256 343° North 417 480 32,800 600 Climbing Miami Center
Sun 08:17:52 AM 27.7781 -80.7644 342° North 412 474 33,000 100 Climbing Miami Center
Sun 08:18:52 AM 27.8833 -80.8033 342° North 407 468 33,000  Level Miami Center
Sun 08:19:52 AM 27.9928 -80.8447 342° North 401 461 33,000  Level Miami Center
Sun 08:20:52 AM 28.0961 -80.8836 341° North 401 461 33,000  Level Miami Center
Sun 08:21:52 AM 28.2056 -80.9253 341° North 401 461 33,000  Level Miami Center
Sun 08:23:58 AM 28.4347 -81.0136 342° North 429 494 33,000  Level Jacksonville Center
Sun 08:24:58 AM 28.5417 -81.0542 342° North 424 488 33,000  Level Jacksonville Center
Sun 08:25:58 AM 28.6508 -81.0947 344° North 412 474 33,000  Level Jacksonville Center
Sun 08:26:58 AM 28.7639 -81.1328 349° North 412 474 33,000  Level Jacksonville Center
Sun 08:27:58 AM 28.8792 -81.1592 347° North 412 474 33,000  Level Jacksonville Center
Sun 08:28:58 AM 28.9942 -81.1906 350° North 418 481 33,000  Level Jacksonville Center
Sun 08:29:58 AM 29.1094 -81.2147 348° North 413 475 33,000  Level Jacksonville Center
Sun 08:30:58 AM 29.2247 -81.2436 349° North 414 476 33,000  Level Jacksonville Center
Sun 08:31:58 AM 29.3419 -81.2703 349° North 414 476 33,000  Level Jacksonville Center
Sun 08:32:58 AM 29.4569 -81.2969 348° North 414 476 33,000  Level Jacksonville Center
Sun 08:33:58 AM 29.5700 -81.3239 349° North 414 476 33,000 -50 Level Jacksonville Center
Sun 08:34:58 AM 29.6894 -81.3506 347° North 419 482 32,900  Descending Jacksonville Center
Sun 08:35:58 AM 29.8025 -81.3797 349° North 419 482 33,000 50 Climbing Jacksonville Center
Sun 08:36:58 AM 29.9217 -81.4067 348° North 419 482 33,000  Level Jacksonville Center
Sun 08:37:58 AM 30.0411 -81.4361 348° North 424 488 33,000  Level Jacksonville Center
Sun 08:38:58 AM 30.1458 -81.4608 348° North 432 497 33,000  Level Jacksonville Center
Sun 08:39:58 AM 30.2631 -81.4906 354° North 432 497 33,000 -50 Level Jacksonville Center
Sun 08:40:58 AM 30.3842 -81.5056 22° Northeast 432 497 32,900  Descending Jacksonville Center
Sun 08:41:58 AM 30.4964 -81.4533 27° Northeast 412 474 33,000 50 Climbing Jacksonville Center
Sun 08:42:58 AM 30.6064 -81.3889 26° Northeast 422 486 33,000  Level Jacksonville Center
Sun 08:43:58 AM 30.7161 -81.3267 27° Northeast 429 494 33,000  Level Jacksonville Center
Sun 08:44:58 AM 30.8261 -81.2619 25° Northeast 434 499 33,000  Level Jacksonville Center
Sun 08:45:58 AM 30.9381 -81.1997 26° Northeast 439 505 33,000  Level Jacksonville Center
Sun 08:46:58 AM 31.0500 -81.1369 27° Northeast 444 511 33,000  Level Jacksonville Center
Sun 08:47:58 AM 31.1575 -81.0742 27° Northeast 438 504 33,000  Level Jacksonville Center
Sun 08:48:58 AM 31.2778 -81.0039 27° Northeast 438 504 33,000  Level Jacksonville Center
Sun 08:49:58 AM 31.3769 -80.9458 26° Northeast 438 504 33,000  Level Jacksonville Center
Sun 08:50:58 AM 31.4992 -80.8750 27° Northeast 444 511 33,000  Level Jacksonville Center
Sun 08:51:58 AM 31.6108 -80.8092 26° Northeast 444 511 33,000  Level Jacksonville Center
Sun 08:52:58 AM 31.7203 -80.7458 27° Northeast 444 511 33,000  Level Jacksonville Center
Sun 08:53:58 AM 31.8278 -80.6822 27° Northeast 437 503 33,000  Level Jacksonville Center
Sun 08:54:58 AM 31.9269 -80.6233 26° Northeast 437 503 33,000  Level Jacksonville Center
Sun 08:55:58 AM 32.0447 -80.5544 28° Northeast 431 496 33,000  Level Jacksonville Center
Sun 08:56:58 AM 32.1542 -80.4853 27° Northeast 431 496 33,000  Level Jacksonville Center
Sun 08:57:58 AM 32.2614 -80.4211 27° Northeast 431 496 33,000  Level Jacksonville Center
Sun 08:58:58 AM 32.3728 -80.3542 27° Northeast 426 490 33,000  Level Jacksonville Center
Sun 08:59:58 AM 32.4800 -80.2897 27° Northeast 426 490 33,000  Level Jacksonville Center
Sun 09:00:58 AM 32.5872 -80.2247 27° Northeast 426 490 33,000  Level Jacksonville Center
Sun 09:01:58 AM 32.6944 -80.1600 27° Northeast 426 490 33,000  Level Jacksonville Center
Sun 09:02:58 AM 32.8036 -80.0925 30° Northeast 426 490 33,000  Level Jacksonville Center
Sun 09:03:58 AM 32.9064 -80.0225 38° Northeast 426 490 33,000  Level Jacksonville Center
Sun 09:04:58 AM 32.9964 -79.9378 39° Northeast 439 505 33,000  Level Jacksonville Center
Sun 09:05:58 AM 33.0922 -79.8453 39° Northeast 444 511 33,000  Level Jacksonville Center
Sun 09:06:58 AM 33.1858 -79.7553 39° Northeast 438 504 33,000  Level Jacksonville Center
Sun 09:07:58 AM 33.2817 -79.6625 39° Northeast 438 504 33,000  Level Jacksonville Center
Sun 09:08:58 AM 33.3753 -79.5722 40° Northeast 438 504 33,000  Level Jacksonville Center
Sun 09:09:58 AM 33.4689 -79.4764 38° Northeast 438 504 33,000  Level Jacksonville Center
Sun 09:10:58 AM 33.5644 -79.3856 40° Northeast 438 504 33,000  Level Jacksonville Center
Sun 09:11:58 AM 33.6556 -79.2922 36° Northeast 438 504 33,000  Level Jacksonville Center
Sun 09:12:58 AM 33.7594 -79.2006 41° Northeast 432 497 33,000  Level Jacksonville Center
Sun 09:14:33 AM 33.8897 -79.0664 39° Northeast 415 478 33,000  Level Washington Center
Sun 09:15:31 AM 33.9842 -78.9753 39° Northeast 415 478 33,000  Level Washington Center
Sun 09:16:32 AM 34.0764 -78.8839 40° Northeast 415 478 33,000  Level Washington Center
Sun 09:17:32 AM 34.1686 -78.7919 39° Northeast 421 484 33,000  Level Washington Center
Sun 09:18:33 AM 34.2631 -78.6978 40° Northeast 421 484 33,000  Level Washington Center
Sun 09:19:33 AM 34.3594 -78.6008 40° Northeast 432 497 33,000  Level Washington Center
Sun 09:20:31 AM 34.4514 -78.5083 42° Northeast 437 503 33,000  Level Washington Center
Sun 09:21:32 AM 34.5456 -78.4058 38° Northeast 437 503 33,000  Level Washington Center
Sun 09:22:33 AM 34.6439 -78.3108 39° Northeast 437 503 33,000  Level Washington Center
Sun 09:23:33 AM 34.7419 -78.2156 43° Northeast 437 503 33,000  Level Washington Center
Sun 09:24:33 AM 34.8444 -78.1000 33° Northeast 443 510 33,000  Level Washington Center
Sun 09:25:31 AM 34.9464 -78.0194 30° Northeast 443 510 33,000  Level Washington Center
Sun 09:26:32 AM 35.0583 -77.9417 31° Northeast 448 516 33,000  Level Washington Center
Sun 09:27:32 AM 35.1664 -77.8608 29° Northeast 454 522 33,000  Level Washington Center
Sun 09:28:31 AM 35.2742 -77.7878 30° Northeast 454 522 33,000  Level Washington Center
Sun 09:29:32 AM 35.3842 -77.7092 31° Northeast 453 521 33,000  Level Washington Center
Sun 09:30:32 AM 35.4942 -77.6278 28° Northeast 453 521 33,000  Level Washington Center
Sun 09:31:32 AM 35.6058 -77.5542 31° Northeast 453 521 33,000  Level Washington Center
Sun 09:32:32 AM 35.7136 -77.4747 30° Northeast 447 514 33,000  Level Washington Center
Sun 09:33:33 AM 35.8253 -77.3956 31° Northeast 453 521 33,000  Level Washington Center
Sun 09:34:33 AM 35.9331 -77.3158 30° Northeast 451 519 33,000  Level Washington Center
Sun 09:35:31 AM 36.0467 -77.2361 30° Northeast 451 519 33,000  Level Washington Center
Sun 09:36:32 AM 36.1436 -77.1661 30° Northeast 451 519 33,000  Level Washington Center
Sun 09:37:32 AM 36.2469 -77.0908 31° Northeast 445 512 33,000  Level Washington Center
Sun 09:38:33 AM 36.3564 -77.0106 31° Northeast 440 506 33,000  Level Washington Center
Sun 09:39:33 AM 36.4636 -76.9297 31° Northeast 445 512 33,000  Level Washington Center
Sun 09:40:33 AM 36.5689 -76.8514 30° Northeast 445 512 33,000  Level Washington Center
Sun 09:41:31 AM 36.6803 -76.7728 32° Northeast 450 518 33,000  Level Washington Center
Sun 09:42:32 AM 36.7831 -76.6914 31° Northeast 445 512 33,000  Level Washington Center
Sun 09:43:33 AM 36.8922 -76.6100 31° Northeast 445 512 33,000  Level Washington Center
Sun 09:44:31 AM 36.9972 -76.5306 30° Northeast 445 512 33,000  Level Washington Center
Sun 09:45:32 AM 37.1022 -76.4539 31° Northeast 445 512 33,000  Level Washington Center
Sun 09:46:33 AM 37.2092 -76.3717 31° Northeast 445 512 33,000  Level Washington Center
Sun 09:47:31 AM 37.3161 -76.2917 30° Northeast 450 518 33,000  Level Washington Center
Sun 09:48:31 AM 37.4228 -76.2142 29° Northeast 450 518 33,000  Level Washington Center
Sun 09:49:32 AM 37.5442 -76.1286 31° Northeast 450 518 33,000  Level Washington Center
Sun 09:50:33 AM 37.6467 -76.0508 32° Northeast 445 512 33,000  Level Washington Center
Sun 09:51:31 AM 37.7533 -75.9675 32° Northeast 439 505 33,000  Level Washington Center
Sun 09:52:32 AM 37.8578 -75.8864 30° Northeast 439 505 33,000  Level Washington Center
Sun 09:53:33 AM 37.9644 -75.8078 33° Northeast 439 505 33,000  Level Washington Center
Sun 09:54:33 AM 38.0667 -75.7236 32° Northeast 439 505 33,000  Level Washington Center
Sun 09:55:33 AM 38.1711 -75.6419 31° Northeast 439 505 33,000  Level Washington Center
Sun 09:56:31 AM 38.2753 -75.5628 26° Northeast 439 505 33,000  Level Washington Center
Sun 09:57:32 AM 38.3858 -75.4936 15° North 434 499 33,000  Level Washington Center
Sun 09:58:32 AM 38.5025 -75.4539 22° Northeast 428 493 33,000  Level Washington Center
Sun 09:59:33 AM 38.6128 -75.3978 18° North 428 493 33,000  Level Washington Center
Sun 10:00:33 AM 38.7253 -75.3522 19° North 428 493 33,000  Level Washington Center
Sun 10:01:31 AM 38.8378 -75.3039 31° Northeast 428 493 33,000  Level Washington Center
Sun 10:02:31 AM 38.9439 -75.2233 33° Northeast 428 493 33,000  Level Washington Center
Sun 10:03:32 AM 39.0458 -75.1372 33° Northeast 433 498 33,000  Level Washington Center
Sun 10:04:33 AM 39.1497 -75.0508 33° Northeast 440 506 33,000  Level Washington Center
Sun 10:05:33 AM 39.2492 -74.9672 32° Northeast 440 506 33,000  Level Washington Center
Sun 10:06:33 AM 39.3531 -74.8831 34° Northeast 434 499 33,000  Level Washington Center
Sun 10:07:31 AM 39.4544 -74.7933 33° Northeast 434 499 33,000  Level Washington Center
Sun 10:08:32 AM 39.5561 -74.7061 34° Northeast 434 499 33,000  Level Washington Center
Sun 10:09:33 AM 39.6575 -74.6186 33° Northeast 434 499 33,000  Level Washington Center
Sun 10:11:51 AM 39.8861 -74.4231 33° Northeast 458 527 33,000  Level New York Center
Sun 10:12:51 AM 39.9997 -74.3261 32° Northeast 453 521 33,000  Level New York Center
Sun 10:13:51 AM 40.1022 -74.2417 32° Northeast 453 521 33,000  Level New York Center
Sun 10:14:51 AM 40.2067 -74.1572 10° North 442 509 33,000  Level New York Center
Sun 10:15:51 AM 40.3200 -74.1303 North 419 482 33,000  Level New York Center
Sun 10:18:52 AM 40.6669 -74.0844 North 412 474 33,000  Level Boston Center
Sun 10:19:52 AM 40.7692 -74.0733 North 414 476 33,000  Level Boston Center
Sun 10:20:52 AM 40.8842 -74.0569 North 414 476 33,000  Level Boston Center
Sun 10:21:52 AM 41.0011 -74.0433 North 414 476 33,000  Level Boston Center
Sun 10:22:52 AM 41.1139 -74.0269 North 414 476 33,000  Level Boston Center
Sun 10:23:52 AM 41.2286 -74.0106 North 420 483 33,000  Level Boston Center
Sun 10:24:52 AM 41.3414 -73.9967 North 432 497 33,000  Level Boston Center
Sun 10:25:52 AM 41.4583 -73.9800 North 420 483 33,000  Level Boston Center
Sun 10:26:52 AM 41.5711 -73.9661 North 415 478 33,000  Level Boston Center
Sun 10:27:52 AM 41.6817 -73.9494 North 405 466 33,000  Level Boston Center
Sun 10:28:52 AM 41.7967 -73.9328 North 405 466 33,000  Level Boston Center
Sun 10:29:52 AM 41.9053 -73.9186 North 405 466 33,000  Level Boston Center
Sun 10:30:52 AM 42.0158 -73.9072 North 405 466 33,000  Level Boston Center
Sun 10:31:52 AM 42.1286 -73.8900 North 405 466 33,000  Level Boston Center
Sun 10:32:52 AM 42.2414 -73.8758 North 405 466 33,000  Level Boston Center
Sun 10:33:52 AM 42.3581 -73.8589 North 405 466 33,000  Level Boston Center
Sun 10:34:52 AM 42.4731 -73.8447 North 400 460 33,000  Level Boston Center
Sun 10:35:52 AM 42.5858 -73.8247 North 407 468 33,000  Level Boston Center
Sun 10:36:52 AM 42.6964 -73.8103 North 407 468 33,000  Level Boston Center
Sun 10:37:52 AM 42.8072 -73.7928 North 407 468 33,000  Level Boston Center
Sun 10:38:52 AM 42.9072 -73.7781 North 407 468 33,000 -50 Level Boston Center
Sun 10:39:52 AM 43.0264 -73.7608 North 402 463 32,900 -750 Descending Boston Center
Sun 10:40:52 AM 43.1267 -73.7458 North 395 455 31,500 -1,700 Descending Boston Center
Sun 10:41:52 AM 43.2475 -73.7314 North 395 455 29,500 -1,900 Descending Boston Center
Sun 10:42:52 AM 43.3497 -73.7164 North 400 460 27,700 -1,950 Descending Boston Center
Sun 10:43:52 AM 43.4647 -73.6986 North 408 470 25,600 -2,000 Descending Boston Center
Sun 10:44:52 AM 43.5836 -73.6783 North 418 481 23,700 -1,700 Descending Boston Center
Sun 10:45:52 AM 43.7006 -73.6692 North 424 488 22,200 -2,100 Descending Boston Center
Sun 10:46:52 AM 43.8089 -73.6542 North 399 459 19,500 -2,600 Descending Boston Center
Sun 10:47:52 AM 43.9156 -73.6361 North 384 442 17,000 -2,750 Descending Boston Center
Sun 10:48:52 AM 44.0156 -73.6208 North 367 422 14,000 -2,750 Descending Boston Center
Sun 10:49:52 AM 44.1117 -73.6083 North 357 411 11,500 -1,800 Descending Boston Center
Sun 10:50:52 AM 44.1992 -73.5956 North 336 387 10,400 -1,050 Descending Boston Center
Sun 10:51:52 AM 44.2764 -73.5797 North 291 335 9,400 -1,300 Descending Boston Center
Sun 10:52:52 AM 44.3475 -73.5722 14° North 260 299 7,800 -1,800 Descending Boston Center
Sun 10:53:52 AM 44.4247 -73.5447 11° North 259 298 5,800 -1,500 Descending Boston Center
Sun 10:54:52 AM 44.4958 -73.5256 North 265 305 4,800 -1,050 Descending Boston Center
Sun 10:55:52 AM 44.5689 -73.5181 343° North 265 305 3,700 -850 Descending Boston Center
Sun 10:56:52 AM 44.6331 -73.5456 346° North 248 285 3,100 -600 Descending Boston Center
Sun 10:57:52 AM 44.6933 -73.5672 63° Northeast 228 262 2,500 -750 Descending Boston Center
Sun 10:58:52 AM 44.7169 -73.5006 41° Northeast 142 163 1,600 -600 Descending Boston Center
Sun 10:59:52 AM 44.7381 -73.4744 39° Northeast 130 150 1,300 4,700 Descending Boston Center
Sun 11:00:52 AM 44.7633 -73.4458 188° South 130 150 11,000 9,700 Climbing Boston Center
Sun 11:08:18 AM 43.9301 -73.6092 North  Level Estimated
Sun 11:09:18 AM 44.6500 -73.4667 312° West  Level FlightAware Approximate
Sun 11:10:18 AM 44.7257 -73.5851 132° Southeast  Level Estimated
Sun 11:11:18 AM 44.6500 -73.4667 312° West  Level FlightAware Approximate
Sun 11:12:18 AM 44.7257 -73.5851 312° West  Level Estimated

Login

Don't have an account? Register now (free) for customized features, flight alerts, and more!